Terminal Aerodrome Forecast
Issued by NWS

Home | Current Version | Previous Version | Text Only | Print | Product List | Glossary Off
Versions: 1 2 3 4 5 6 7 8 9 10 11 12 13 14

000
FTUS43 KIWX 252300
TAFSBN
TAF
KSBN 252338Z 2600/2624 04008KT 5SM -SN OVC040
     FM260200 03012KT P6SM BKN050
     FM260500 04007KT P6SM SCT050
     FM261200 05004KT P6SM SCT250=

USA.gov is the U.S. government's official web portal to all federal, state and local government web resources and services.